KBCB/BCB METAR and TAF weather

Enter ICAO airport designator
Station Type Date Time Source
KBCB METAR 2019/12/06 03:55 UTC NOAA

KBCB 060355Z AUTO 00000KT 10SM CLR M01/M05 A3020 RMK AO2 T10091047


Station Type Date Time Source
KBCB Decoded METAR 2019/12/06 03:55 UTC NOAA

Virginia Tech Airport, VA, United States (KBCB) 37-13N 080-25W
Dec 05, 2019 - 10:55 PM EST / 2019.12.06 0355 UTC
Wind: Calm:0
Visibility: 10 mile(s):0
Sky conditions: clear
Temperature: 30.4 F (-0.9 C)
Dew Point: 23.5 F (-4.7 C)
Relative Humidity: 75%
Pressure (altimeter): 30.2 in. Hg (1022 hPa)
ob: KBCB 060355Z AUTO 00000KT 10SM CLR M01/M05 A3020 RMK AO2 T10091047
cycle: 4

Station Type Date Time Source
KBCB TAF 2019/12/05 18:33 UTC NOAA

TAF KBCB 051730Z 0518/0618 28008G15KT P6SM SKC
FM052200 00000KT P6SM SCT200
FM061300 26006KT P6SM OVC070

Example: see airport list